Flight Briefing for CPX967

Departure Arrival
Travis Air Force Base (KSUU)
Click to view FAA NOTAMS
Seattle-Tacoma International Airport (KSEA)
Click to view FAA NOTAMS
Departure Time Arrival Time
N/A N/A
Aircraft Distance
B757-200SF 551nm
Departure METAR Arrival METAR
KSUU 250258Z AUTO 23020G24KT 10SM CLR 17/12 A2988 RMK AO2 PK WND 23027/38 SLP125 T01650118 56002 $ KSEA 250353Z 20007KT 10SM FEW035 OVC050 13/07 A2996 RMK AO2 SLP152 T01330072
Suggested Route
WAPEX RBL J65 LMT HAWKZ7


View recent IFR Routes data
Notes
EMPTY | NON-REVENUE REPOSITIONING LEG

Charts and Procedures

Charts for KSUU
No chart available
Charts for KSEA
No chart available

Windy.com Weather Map